sensor_id;sensor_type;location;lat;lon;timestamp;temperature;humidity
40023;DHT22;25713;-35.352;149.036;2023-11-18T00:00:39;18.50;68.30
40023;DHT22;25713;-35.352;149.036;2023-11-18T00:03:08;18.50;68.30
40023;DHT22;25713;-35.352;149.036;2023-11-18T00:05:37;18.60;68.00
40023;DHT22;25713;-35.352;149.036;2023-11-18T00:08:07;18.70;67.00
40023;DHT22;25713;-35.352;149.036;2023-11-18T00:10:36;18.70;67.60
40023;DHT22;25713;-35.352;149.036;2023-11-18T00:13:06;18.80;66.70
40023;DHT22;25713;-35.352;149.036;2023-11-18T00:15:35;18.80;67.60
40023;DHT22;25713;-35.352;149.036;2023-11-18T00:18:07;18.80;67.50
40023;DHT22;25713;-35.352;149.036;2023-11-18T00:20:36;18.90;67.20
40023;DHT22;25713;-35.352;149.036;2023-11-18T00:23:06;18.90;67.40
40023;DHT22;25713;-35.352;149.036;2023-11-18T00:25:35;18.90;66.40
40023;DHT22;25713;-35.352;149.036;2023-11-18T00:28:05;18.90;65.30
40023;DHT22;25713;-35.352;149.036;2023-11-18T00:30:35;18.90;65.30
40023;DHT22;25713;-35.352;149.036;2023-11-18T00:33:08;18.90;66.60
40023;DHT22;25713;-35.352;149.036;2023-11-18T00:35:37;19.00;66.20
40023;DHT22;25713;-35.352;149.036;2023-11-18T00:38:08;19.10;65.60
40023;DHT22;25713;-35.352;149.036;2023-11-18T00:40:38;19.20;63.80
40023;DHT22;25713;-35.352;149.036;2023-11-18T00:43:07;19.10;65.40
40023;DHT22;25713;-35.352;149.036;2023-11-18T00:45:37;19.20;65.10
40023;DHT22;25713;-35.352;149.036;2023-11-18T00:48:10;19.20;65.00
40023;DHT22;25713;-35.352;149.036;2023-11-18T00:50:39;19.20;64.50
40023;DHT22;25713;-35.352;149.036;2023-11-18T00:53:09;19.20;64.90
40023;DHT22;25713;-35.352;149.036;2023-11-18T00:55:38;19.30;63.50
40023;DHT22;25713;-35.352;149.036;2023-11-18T00:58:08;19.40;64.60
40023;DHT22;25713;-35.352;149.036;2023-11-18T01:00:37;19.40;65.10
40023;DHT22;25713;-35.352;149.036;2023-11-18T01:03:10;19.40;65.80
40023;DHT22;25713;-35.352;149.036;2023-11-18T01:05:38;19.40;65.30
40023;DHT22;25713;-35.352;149.036;2023-11-18T01:08:08;19.50;64.80
40023;DHT22;25713;-35.352;149.036;2023-11-18T01:10:38;19.50;65.00
40023;DHT22;25713;-35.352;149.036;2023-11-18T01:13:08;19.50;65.10
40023;DHT22;25713;-35.352;149.036;2023-11-18T01:15:37;19.50;64.70
40023;DHT22;25713;-35.352;149.036;2023-11-18T01:18:09;19.60;63.20
40023;DHT22;25713;-35.352;149.036;2023-11-18T01:20:38;19.60;65.10
40023;DHT22;25713;-35.352;149.036;2023-11-18T01:23:08;19.80;63.10
40023;DHT22;25713;-35.352;149.036;2023-11-18T01:25:37;19.80;63.20
40023;DHT22;25713;-35.352;149.036;2023-11-18T01:28:06;19.90;61.70
40023;DHT22;25713;-35.352;149.036;2023-11-18T01:30:36;19.90;61.80
40023;DHT22;25713;-35.352;149.036;2023-11-18T01:33:09;19.90;63.90
40023;DHT22;25713;-35.352;149.036;2023-11-18T01:35:39;19.80;64.10
40023;DHT22;25713;-35.352;149.036;2023-11-18T01:38:09;20.00;61.80
40023;DHT22;25713;-35.352;149.036;2023-11-18T01:40:38;20.10;61.50
40023;DHT22;25713;-35.352;149.036;2023-11-18T01:43:10;20.00;63.20
40023;DHT22;25713;-35.352;149.036;2023-11-18T01:45:39;20.00;61.90
40023;DHT22;25713;-35.352;149.036;2023-11-18T01:48:11;20.00;63.10
40023;DHT22;25713;-35.352;149.036;2023-11-18T01:50:42;20.20;62.80
40023;DHT22;25713;-35.352;149.036;2023-11-18T01:53:12;20.20;62.50
40023;DHT22;25713;-35.352;149.036;2023-11-18T01:55:43;20.30;61.80
40023;DHT22;25713;-35.352;149.036;2023-11-18T01:58:12;20.40;61.20
40023;DHT22;25713;-35.352;149.036;2023-11-18T02:00:42;20.30;61.80
40023;DHT22;25713;-35.352;149.036;2023-11-18T02:03:15;20.40;61.80
40023;DHT22;25713;-35.352;149.036;2023-11-18T02:05:45;20.40;62.00
40023;DHT22;25713;-35.352;149.036;2023-11-18T02:08:15;20.40;61.10
40023;DHT22;25713;-35.352;149.036;2023-11-18T02:10:48;20.50;60.60
40023;DHT22;25713;-35.352;149.036;2023-11-18T02:13:23;20.70;59.10
40023;DHT22;25713;-35.352;149.036;2023-11-18T02:15:54;20.70;58.80
40023;DHT22;25713;-35.352;149.036;2023-11-18T02:18:29;20.80;59.00
40023;DHT22;25713;-35.352;149.036;2023-11-18T02:20:59;21.00;57.30
40023;DHT22;25713;-35.352;149.036;2023-11-18T02:23:29;21.00;59.60
40023;DHT22;25713;-35.352;149.036;2023-11-18T02:26:02;20.90;60.20
40023;DHT22;25713;-35.352;149.036;2023-11-18T02:28:31;20.80;60.00
40023;DHT22;25713;-35.352;149.036;2023-11-18T02:31:05;20.80;59.70
40023;DHT22;25713;-35.352;149.036;2023-11-18T02:33:47;20.90;58.70
40023;DHT22;25713;-35.352;149.036;2023-11-18T02:36:26;20.90;59.10
40023;DHT22;25713;-35.352;149.036;2023-11-18T02:39:01;20.90;59.60
40023;DHT22;25713;-35.352;149.036;2023-11-18T02:41:37;20.90;59.30
40023;DHT22;25713;-35.352;149.036;2023-11-18T02:44:08;21.00;58.80
40023;DHT22;25713;-35.352;149.036;2023-11-18T02:46:38;20.90;58.50
40023;DHT22;25713;-35.352;149.036;2023-11-18T02:49:07;20.90;57.80
40023;DHT22;25713;-35.352;149.036;2023-11-18T02:51:37;21.10;56.70
40023;DHT22;25713;-35.352;149.036;2023-11-18T02:54:07;21.20;57.90
40023;DHT22;25713;-35.352;149.036;2023-11-18T02:56:39;21.10;57.90
40023;DHT22;25713;-35.352;149.036;2023-11-18T02:59:08;21.00;57.10
40023;DHT22;25713;-35.352;149.036;2023-11-18T03:01:39;21.20;57.10
40023;DHT22;25713;-35.352;149.036;2023-11-18T03:04:08;21.30;56.50
40023;DHT22;25713;-35.352;149.036;2023-11-18T03:06:38;21.30;54.40
40023;DHT22;25713;-35.352;149.036;2023-11-18T03:09:07;21.50;55.40
40023;DHT22;25713;-35.352;149.036;2023-11-18T03:11:39;21.40;54.90
40023;DHT22;25713;-35.352;149.036;2023-11-18T03:14:08;21.40;54.80
40023;DHT22;25713;-35.352;149.036;2023-11-18T03:16:38;21.40;55.90
40023;DHT22;25713;-35.352;149.036;2023-11-18T03:19:08;21.50;53.90
40023;DHT22;25713;-35.352;149.036;2023-11-18T03:21:37;21.70;51.20
40023;DHT22;25713;-35.352;149.036;2023-11-18T03:24:07;21.80;52.90
40023;DHT22;25713;-35.352;149.036;2023-11-18T03:26:40;21.80;55.70
40023;DHT22;25713;-35.352;149.036;2023-11-18T03:29:10;21.70;56.20
40023;DHT22;25713;-35.352;149.036;2023-11-18T03:31:39;21.60;55.30
40023;DHT22;25713;-35.352;149.036;2023-11-18T03:34:08;21.60;55.10
40023;DHT22;25713;-35.352;149.036;2023-11-18T03:36:38;21.50;57.00
40023;DHT22;25713;-35.352;149.036;2023-11-18T03:39:08;21.90;54.90
40023;DHT22;25713;-35.352;149.036;2023-11-18T03:41:41;21.90;55.40
40023;DHT22;25713;-35.352;149.036;2023-11-18T03:44:10;22.00;54.30
40023;DHT22;25713;-35.352;149.036;2023-11-18T03:46:40;22.00;54.50
40023;DHT22;25713;-35.352;149.036;2023-11-18T03:49:10;21.90;54.30
40023;DHT22;25713;-35.352;149.036;2023-11-18T03:51:39;21.80;54.80
40023;DHT22;25713;-35.352;149.036;2023-11-18T03:54:09;21.80;56.10
40023;DHT22;25713;-35.352;149.036;2023-11-18T03:56:41;21.70;56.70
40023;DHT22;25713;-35.352;149.036;2023-11-18T03:59:11;21.50;56.80
40023;DHT22;25713;-35.352;149.036;2023-11-18T04:01:40;21.60;56.20
40023;DHT22;25713;-35.352;149.036;2023-11-18T04:04:09;21.60;57.30
40023;DHT22;25713;-35.352;149.036;2023-11-18T04:06:39;21.60;56.40
40023;DHT22;25713;-35.352;149.036;2023-11-18T04:09:08;21.70;55.60
40023;DHT22;25713;-35.352;149.036;2023-11-18T04:11:41;22.10;53.40
40023;DHT22;25713;-35.352;149.036;2023-11-18T04:14:11;22.10;55.40
40023;DHT22;25713;-35.352;149.036;2023-11-18T04:16:40;22.20;53.80
40023;DHT22;25713;-35.352;149.036;2023-11-18T04:19:10;22.30;54.10
40023;DHT22;25713;-35.352;149.036;2023-11-18T04:21:39;22.20;54.60
40023;DHT22;25713;-35.352;149.036;2023-11-18T04:24:09;22.10;55.20
40023;DHT22;25713;-35.352;149.036;2023-11-18T04:26:42;22.10;54.10
40023;DHT22;25713;-35.352;149.036;2023-11-18T04:29:12;22.20;54.90
40023;DHT22;25713;-35.352;149.036;2023-11-18T04:31:41;22.20;54.70
40023;DHT22;25713;-35.352;149.036;2023-11-18T04:34:10;22.10;55.40
40023;DHT22;25713;-35.352;149.036;2023-11-18T04:36:42;22.10;55.10
40023;DHT22;25713;-35.352;149.036;2023-11-18T04:39:11;22.10;55.30
40023;DHT22;25713;-35.352;149.036;2023-11-18T04:41:44;22.10;55.40
40023;DHT22;25713;-35.352;149.036;2023-11-18T04:44:14;22.10;53.50
40023;DHT22;25713;-35.352;149.036;2023-11-18T04:46:43;22.20;52.20
40023;DHT22;25713;-35.352;149.036;2023-11-18T04:49:13;22.40;51.40
40023;DHT22;25713;-35.352;149.036;2023-11-18T04:51:42;22.40;54.00
40023;DHT22;25713;-35.352;149.036;2023-11-18T04:54:12;22.30;52.80
40023;DHT22;25713;-35.352;149.036;2023-11-18T04:56:43;22.40;52.30
40023;DHT22;25713;-35.352;149.036;2023-11-18T04:59:13;22.40;52.40
40023;DHT22;25713;-35.352;149.036;2023-11-18T05:01:42;22.40;50.50
40023;DHT22;25713;-35.352;149.036;2023-11-18T05:04:11;22.30;53.00
40023;DHT22;25713;-35.352;149.036;2023-11-18T05:06:41;22.30;53.10
40023;DHT22;25713;-35.352;149.036;2023-11-18T05:09:10;22.60;51.30
40023;DHT22;25713;-35.352;149.036;2023-11-18T05:11:43;22.50;53.60
40023;DHT22;25713;-35.352;149.036;2023-11-18T05:14:13;22.30;54.40
40023;DHT22;25713;-35.352;149.036;2023-11-18T05:16:43;22.30;53.00
40023;DHT22;25713;-35.352;149.036;2023-11-18T05:19:12;22.30;53.70
40023;DHT22;25713;-35.352;149.036;2023-11-18T05:21:42;22.30;53.90
40023;DHT22;25713;-35.352;149.036;2023-11-18T05:24:11;22.40;51.90
40023;DHT22;25713;-35.352;149.036;2023-11-18T05:26:44;22.30;52.40
40023;DHT22;25713;-35.352;149.036;2023-11-18T05:29:13;22.40;52.70
40023;DHT22;25713;-35.352;149.036;2023-11-18T05:31:43;22.40;51.60
40023;DHT22;25713;-35.352;149.036;2023-11-18T05:34:12;22.30;51.60
40023;DHT22;25713;-35.352;149.036;2023-11-18T05:36:42;22.50;51.40
40023;DHT22;25713;-35.352;149.036;2023-11-18T05:39:11;22.40;52.70
40023;DHT22;25713;-35.352;149.036;2023-11-18T05:41:43;22.40;52.50
40023;DHT22;25713;-35.352;149.036;2023-11-18T05:44:12;22.50;52.60
40023;DHT22;25713;-35.352;149.036;2023-11-18T05:46:41;22.50;51.00
40023;DHT22;25713;-35.352;149.036;2023-11-18T05:49:11;22.60;50.90
40023;DHT22;25713;-35.352;149.036;2023-11-18T05:51:41;22.40;53.40
40023;DHT22;25713;-35.352;149.036;2023-11-18T05:54:10;22.30;53.10
40023;DHT22;25713;-35.352;149.036;2023-11-18T05:56:40;22.40;51.90
40023;DHT22;25713;-35.352;149.036;2023-11-18T05:59:11;22.40;51.60
40023;DHT22;25713;-35.352;149.036;2023-11-18T06:01:41;22.30;52.60
40023;DHT22;25713;-35.352;149.036;2023-11-18T06:04:10;22.50;49.90
40023;DHT22;25713;-35.352;149.036;2023-11-18T06:06:40;22.70;49.50
40023;DHT22;25713;-35.352;149.036;2023-11-18T06:09:09;22.60;51.80
40023;DHT22;25713;-35.352;149.036;2023-11-18T06:11:38;22.50;50.90
40023;DHT22;25713;-35.352;149.036;2023-11-18T06:14:10;22.70;49.20
40023;DHT22;25713;-35.352;149.036;2023-11-18T06:16:40;22.70;49.30
40023;DHT22;25713;-35.352;149.036;2023-11-18T06:19:09;22.80;48.20
40023;DHT22;25713;-35.352;149.036;2023-11-18T06:21:39;22.70;50.70
40023;DHT22;25713;-35.352;149.036;2023-11-18T06:24:08;22.70;48.10
40023;DHT22;25713;-35.352;149.036;2023-11-18T06:26:38;22.80;47.80
40023;DHT22;25713;-35.352;149.036;2023-11-18T06:29:11;22.70;50.40
40023;DHT22;25713;-35.352;149.036;2023-11-18T06:31:41;22.50;49.70
40023;DHT22;25713;-35.352;149.036;2023-11-18T06:34:11;22.50;50.70
40023;DHT22;25713;-35.352;149.036;2023-11-18T06:36:40;22.40;50.20
40023;DHT22;25713;-35.352;149.036;2023-11-18T06:39:09;22.30;52.10
40023;DHT22;25713;-35.352;149.036;2023-11-18T06:41:39;22.20;50.60
40023;DHT22;25713;-35.352;149.036;2023-11-18T06:44:11;22.40;48.10
40023;DHT22;25713;-35.352;149.036;2023-11-18T06:46:41;22.30;49.50
40023;DHT22;25713;-35.352;149.036;2023-11-18T06:49:11;22.40;51.60
40023;DHT22;25713;-35.352;149.036;2023-11-18T06:51:40;22.30;50.20
40023;DHT22;25713;-35.352;149.036;2023-11-18T06:54:10;22.30;49.00
40023;DHT22;25713;-35.352;149.036;2023-11-18T06:56:40;22.40;49.60
40023;DHT22;25713;-35.352;149.036;2023-11-18T06:59:13;22.30;50.40
40023;DHT22;25713;-35.352;149.036;2023-11-18T07:01:42;22.30;49.80
40023;DHT22;25713;-35.352;149.036;2023-11-18T07:04:12;22.20;51.30
40023;DHT22;25713;-35.352;149.036;2023-11-18T07:06:42;22.30;50.10
40023;DHT22;25713;-35.352;149.036;2023-11-18T07:09:12;22.50;47.90
40023;DHT22;25713;-35.352;149.036;2023-11-18T07:11:41;22.50;48.50
40023;DHT22;25713;-35.352;149.036;2023-11-18T07:14:14;22.50;49.50
40023;DHT22;25713;-35.352;149.036;2023-11-18T07:16:44;22.40;50.90
40023;DHT22;25713;-35.352;149.036;2023-11-18T07:19:13;22.50;48.70
40023;DHT22;25713;-35.352;149.036;2023-11-18T07:21:43;22.50;49.70
40023;DHT22;25713;-35.352;149.036;2023-11-18T07:24:12;22.40;49.30
40023;DHT22;25713;-35.352;149.036;2023-11-18T07:26:42;22.40;50.70
40023;DHT22;25713;-35.352;149.036;2023-11-18T07:29:16;22.40;49.30
40023;DHT22;25713;-35.352;149.036;2023-11-18T07:31:45;22.30;51.00
40023;DHT22;25713;-35.352;149.036;2023-11-18T07:34:15;22.30;48.90
40023;DHT22;25713;-35.352;149.036;2023-11-18T07:36:44;22.30;50.00
40023;DHT22;25713;-35.352;149.036;2023-11-18T07:39:14;22.30;49.90
40023;DHT22;25713;-35.352;149.036;2023-11-18T07:41:43;22.30;48.70
40023;DHT22;25713;-35.352;149.036;2023-11-18T07:44:16;22.30;49.90
40023;DHT22;25713;-35.352;149.036;2023-11-18T07:46:45;22.30;49.70
40023;DHT22;25713;-35.352;149.036;2023-11-18T07:49:15;22.20;50.40
40023;DHT22;25713;-35.352;149.036;2023-11-18T07:51:44;22.10;51.20
40023;DHT22;25713;-35.352;149.036;2023-11-18T07:54:13;22.00;52.10
40023;DHT22;25713;-35.352;149.036;2023-11-18T07:56:43;22.00;50.10
40023;DHT22;25713;-35.352;149.036;2023-11-18T07:59:16;22.10;50.20
40023;DHT22;25713;-35.352;149.036;2023-11-18T08:01:46;22.00;51.90
40023;DHT22;25713;-35.352;149.036;2023-11-18T08:04:15;21.90;50.80
40023;DHT22;25713;-35.352;149.036;2023-11-18T08:06:45;22.00;49.90
40023;DHT22;25713;-35.352;149.036;2023-11-18T08:09:14;21.90;51.50
40023;DHT22;25713;-35.352;149.036;2023-11-18T08:11:44;22.00;50.30
40023;DHT22;25713;-35.352;149.036;2023-11-18T08:14:16;22.00;50.40
40023;DHT22;25713;-35.352;149.036;2023-11-18T08:16:46;22.00;50.50
40023;DHT22;25713;-35.352;149.036;2023-11-18T08:19:16;22.00;50.10
40023;DHT22;25713;-35.352;149.036;2023-11-18T08:21:45;22.00;50.90
40023;DHT22;25713;-35.352;149.036;2023-11-18T08:24:15;22.00;51.00
40023;DHT22;25713;-35.352;149.036;2023-11-18T08:26:46;21.90;51.10
40023;DHT22;25713;-35.352;149.036;2023-11-18T08:29:19;21.90;50.50
40023;DHT22;25713;-35.352;149.036;2023-11-18T08:31:49;21.90;51.10
40023;DHT22;25713;-35.352;149.036;2023-11-18T08:34:18;21.90;50.70
40023;DHT22;25713;-35.352;149.036;2023-11-18T08:36:48;21.90;50.80
40023;DHT22;25713;-35.352;149.036;2023-11-18T08:39:20;21.90;50.40
40023;DHT22;25713;-35.352;149.036;2023-11-18T08:41:50;21.80;51.10
40023;DHT22;25713;-35.352;149.036;2023-11-18T08:44:23;21.90;50.80
40023;DHT22;25713;-35.352;149.036;2023-11-18T08:46:53;21.80;51.60
40023;DHT22;25713;-35.352;149.036;2023-11-18T08:49:23;21.80;51.20
40023;DHT22;25713;-35.352;149.036;2023-11-18T08:51:52;21.80;51.70
40023;DHT22;25713;-35.352;149.036;2023-11-18T08:54:22;21.70;52.20
40023;DHT22;25713;-35.352;149.036;2023-11-18T08:56:51;21.70;52.40
40023;DHT22;25713;-35.352;149.036;2023-11-18T08:59:23;21.60;51.70
40023;DHT22;25713;-35.352;149.036;2023-11-18T09:01:53;21.60;51.50
40023;DHT22;25713;-35.352;149.036;2023-11-18T09:04:23;21.60;51.50
40023;DHT22;25713;-35.352;149.036;2023-11-18T09:06:53;21.60;52.10
40023;DHT22;25713;-35.352;149.036;2023-11-18T09:09:23;21.60;52.20
40023;DHT22;25713;-35.352;149.036;2023-11-18T09:11:53;21.50;52.00
40023;DHT22;25713;-35.352;149.036;2023-11-18T09:14:26;21.50;51.90
40023;DHT22;25713;-35.352;149.036;2023-11-18T09:16:56;21.50;52.40
40023;DHT22;25713;-35.352;149.036;2023-11-18T09:19:25;21.50;52.50
40023;DHT22;25713;-35.352;149.036;2023-11-18T09:21:54;21.50;52.00
40023;DHT22;25713;-35.352;149.036;2023-11-18T09:24:24;21.40;52.60
40023;DHT22;25713;-35.352;149.036;2023-11-18T09:26:53;21.40;52.30
40023;DHT22;25713;-35.352;149.036;2023-11-18T09:29:26;21.30;51.70
40023;DHT22;25713;-35.352;149.036;2023-11-18T09:31:57;21.40;51.70
40023;DHT22;25713;-35.352;149.036;2023-11-18T09:34:27;21.30;52.90
40023;DHT22;25713;-35.352;149.036;2023-11-18T09:36:56;21.30;52.50
40023;DHT22;25713;-35.352;149.036;2023-11-18T09:39:26;21.30;52.40
40023;DHT22;25713;-35.352;149.036;2023-11-18T09:41:55;21.20;52.70
40023;DHT22;25713;-35.352;149.036;2023-11-18T09:44:28;21.20;52.90
40023;DHT22;25713;-35.352;149.036;2023-11-18T09:46:59;21.20;52.70
40023;DHT22;25713;-35.352;149.036;2023-11-18T09:49:31;21.20;53.50
40023;DHT22;25713;-35.352;149.036;2023-11-18T09:52:04;21.20;52.90
40023;DHT22;25713;-35.352;149.036;2023-11-18T09:54:45;21.20;54.00
40023;DHT22;25713;-35.352;149.036;2023-11-18T09:57:19;21.20;54.80
40023;DHT22;25713;-35.352;149.036;2023-11-18T09:59:58;21.10;55.00
40023;DHT22;25713;-35.352;149.036;2023-11-18T10:02:31;21.10;55.30
40023;DHT22;25713;-35.352;149.036;2023-11-18T10:05:01;21.10;54.90
40023;DHT22;25713;-35.352;149.036;2023-11-18T10:07:33;21.10;55.80
40023;DHT22;25713;-35.352;149.036;2023-11-18T10:10:03;21.10;56.30
40023;DHT22;25713;-35.352;149.036;2023-11-18T10:12:33;21.10;59.60
40023;DHT22;25713;-35.352;149.036;2023-11-18T10:15:05;21.00;56.60
40023;DHT22;25713;-35.352;149.036;2023-11-18T10:17:38;21.00;56.80
40023;DHT22;25713;-35.352;149.036;2023-11-18T10:20:09;20.90;58.20
40023;DHT22;25713;-35.352;149.036;2023-11-18T10:22:38;20.90;59.80
40023;DHT22;25713;-35.352;149.036;2023-11-18T10:25:08;20.90;61.50
40023;DHT22;25713;-35.352;149.036;2023-11-18T10:27:37;20.90;62.80
40023;DHT22;25713;-35.352;149.036;2023-11-18T10:30:11;20.90;63.60
40023;DHT22;25713;-35.352;149.036;2023-11-18T10:32:41;20.90;64.50
40023;DHT22;25713;-35.352;149.036;2023-11-18T10:35:11;20.80;64.70
40023;DHT22;25713;-35.352;149.036;2023-11-18T10:37:41;20.80;65.30
40023;DHT22;25713;-35.352;149.036;2023-11-18T10:40:11;20.80;65.50
40023;DHT22;25713;-35.352;149.036;2023-11-18T10:42:40;20.80;66.30
40023;DHT22;25713;-35.352;149.036;2023-11-18T10:45:12;20.70;66.90
40023;DHT22;25713;-35.352;149.036;2023-11-18T10:47:42;20.70;67.20
40023;DHT22;25713;-35.352;149.036;2023-11-18T10:50:12;20.70;67.50
40023;DHT22;25713;-35.352;149.036;2023-11-18T10:52:42;20.70;68.10
40023;DHT22;25713;-35.352;149.036;2023-11-18T10:55:11;20.60;68.40
40023;DHT22;25713;-35.352;149.036;2023-11-18T10:57:41;20.60;69.10
40023;DHT22;25713;-35.352;149.036;2023-11-18T11:00:15;20.60;68.50
40023;DHT22;25713;-35.352;149.036;2023-11-18T11:02:44;20.60;68.90
40023;DHT22;25713;-35.352;149.036;2023-11-18T11:05:28;20.50;69.30
40023;DHT22;25713;-35.352;149.036;2023-11-18T11:07:58;20.50;69.50
40023;DHT22;25713;-35.352;149.036;2023-11-18T11:10:28;20.60;68.90
40023;DHT22;25713;-35.352;149.036;2023-11-18T11:13:01;20.50;69.30
40023;DHT22;25713;-35.352;149.036;2023-11-18T11:15:45;20.50;69.50
40023;DHT22;25713;-35.352;149.036;2023-11-18T11:18:20;20.50;69.70
40023;DHT22;25713;-35.352;149.036;2023-11-18T11:20:57;20.50;69.20
40023;DHT22;25713;-35.352;149.036;2023-11-18T11:23:35;20.50;69.60
40023;DHT22;25713;-35.352;149.036;2023-11-18T11:26:13;20.50;69.70
40023;DHT22;25713;-35.352;149.036;2023-11-18T11:28:45;20.50;69.70
40023;DHT22;25713;-35.352;149.036;2023-11-18T11:31:30;20.50;70.50
40023;DHT22;25713;-35.352;149.036;2023-11-18T11:34:03;20.40;70.60
40023;DHT22;25713;-35.352;149.036;2023-11-18T11:36:37;20.40;70.70
40023;DHT22;25713;-35.352;149.036;2023-11-18T11:39:08;20.40;70.90
40023;DHT22;25713;-35.352;149.036;2023-11-18T11:41:38;20.40;70.80
40023;DHT22;25713;-35.352;149.036;2023-11-18T11:44:08;20.40;70.80
40023;DHT22;25713;-35.352;149.036;2023-11-18T11:46:41;20.40;71.10
40023;DHT22;25713;-35.352;149.036;2023-11-18T11:49:12;20.30;70.70
40023;DHT22;25713;-35.352;149.036;2023-11-18T11:51:46;20.40;70.40
40023;DHT22;25713;-35.352;149.036;2023-11-18T11:54:20;20.40;70.30
40023;DHT22;25713;-35.352;149.036;2023-11-18T11:56:51;20.40;70.20
40023;DHT22;25713;-35.352;149.036;2023-11-18T11:59:36;20.50;70.00
40023;DHT22;25713;-35.352;149.036;2023-11-18T12:02:27;20.40;69.70
40023;DHT22;25713;-35.352;149.036;2023-11-18T12:04:57;20.40;70.60
40023;DHT22;25713;-35.352;149.036;2023-11-18T12:07:27;20.30;71.30
40023;DHT22;25713;-35.352;149.036;2023-11-18T12:10:00;20.30;70.40
40023;DHT22;25713;-35.352;149.036;2023-11-18T12:12:30;20.30;70.20
40023;DHT22;25713;-35.352;149.036;2023-11-18T12:14:59;20.40;70.30
40023;DHT22;25713;-35.352;149.036;2023-11-18T12:17:31;20.40;70.20
40023;DHT22;25713;-35.352;149.036;2023-11-18T12:20:41;20.40;70.20
40023;DHT22;25713;-35.352;149.036;2023-11-18T12:23:10;20.40;70.30
40023;DHT22;25713;-35.352;149.036;2023-11-18T12:25:41;20.40;70.30
40023;DHT22;25713;-35.352;149.036;2023-11-18T12:28:13;20.40;70.30
40023;DHT22;25713;-35.352;149.036;2023-11-18T12:30:45;20.40;70.20
40023;DHT22;25713;-35.352;149.036;2023-11-18T12:33:19;20.40;70.30
40023;DHT22;25713;-35.352;149.036;2023-11-18T12:42:03;20.40;70.40
40023;DHT22;25713;-35.352;149.036;2023-11-18T12:44:37;20.30;70.40
40023;DHT22;25713;-35.352;149.036;2023-11-18T12:47:07;20.30;70.60
40023;DHT22;25713;-35.352;149.036;2023-11-18T12:49:42;20.30;70.60
40023;DHT22;25713;-35.352;149.036;2023-11-18T12:52:12;20.30;71.00
40023;DHT22;25713;-35.352;149.036;2023-11-18T12:54:42;20.30;70.80
40023;DHT22;25713;-35.352;149.036;2023-11-18T12:57:12;20.30;71.00
40023;DHT22;25713;-35.352;149.036;2023-11-18T12:59:43;20.30;71.00
40023;DHT22;25713;-35.352;149.036;2023-11-18T13:02:13;20.30;71.10
40023;DHT22;25713;-35.352;149.036;2023-11-18T13:04:46;20.30;71.00
40023;DHT22;25713;-35.352;149.036;2023-11-18T13:07:15;20.30;71.10
40023;DHT22;25713;-35.352;149.036;2023-11-18T13:09:46;20.20;71.00
40023;DHT22;25713;-35.352;149.036;2023-11-18T13:12:17;20.20;71.00
40023;DHT22;25713;-35.352;149.036;2023-11-18T13:14:46;20.20;71.10
40023;DHT22;25713;-35.352;149.036;2023-11-18T13:17:16;20.20;71.40
40023;DHT22;25713;-35.352;149.036;2023-11-18T13:19:49;20.20;71.60
40023;DHT22;25713;-35.352;149.036;2023-11-18T13:22:19;20.20;71.20
40023;DHT22;25713;-35.352;149.036;2023-11-18T13:24:48;20.20;71.40
40023;DHT22;25713;-35.352;149.036;2023-11-18T13:27:20;20.20;71.50
40023;DHT22;25713;-35.352;149.036;2023-11-18T13:29:49;20.20;71.70
40023;DHT22;25713;-35.352;149.036;2023-11-18T13:32:19;20.20;71.80
40023;DHT22;25713;-35.352;149.036;2023-11-18T13:34:51;20.20;71.70
40023;DHT22;25713;-35.352;149.036;2023-11-18T13:37:20;20.10;71.70
40023;DHT22;25713;-35.352;149.036;2023-11-18T13:39:55;20.10;71.80
40023;DHT22;25713;-35.352;149.036;2023-11-18T13:42:25;20.10;71.70
40023;DHT22;25713;-35.352;149.036;2023-11-18T13:45:00;20.10;71.70
40023;DHT22;25713;-35.352;149.036;2023-11-18T13:47:33;20.10;71.80
40023;DHT22;25713;-35.352;149.036;2023-11-18T13:50:07;20.10;72.10
40023;DHT22;25713;-35.352;149.036;2023-11-18T13:52:37;20.10;71.90
40023;DHT22;25713;-35.352;149.036;2023-11-18T13:55:07;20.00;71.80
40023;DHT22;25713;-35.352;149.036;2023-11-18T13:57:37;20.00;72.00
40023;DHT22;25713;-35.352;149.036;2023-11-18T14:00:09;20.00;71.90
40023;DHT22;25713;-35.352;149.036;2023-11-18T14:02:39;20.00;72.00
40023;DHT22;25713;-35.352;149.036;2023-11-18T14:05:16;20.00;71.90
40023;DHT22;25713;-35.352;149.036;2023-11-18T14:07:47;20.00;72.10
40023;DHT22;25713;-35.352;149.036;2023-11-18T14:10:17;20.00;72.10
40023;DHT22;25713;-35.352;149.036;2023-11-18T14:13:00;20.00;72.40
40023;DHT22;25713;-35.352;149.036;2023-11-18T14:15:30;19.90;72.50
40023;DHT22;25713;-35.352;149.036;2023-11-18T14:17:59;20.00;72.40
40023;DHT22;25713;-35.352;149.036;2023-11-18T14:20:31;19.90;72.50
40023;DHT22;25713;-35.352;149.036;2023-11-18T14:23:01;20.00;72.60
40023;DHT22;25713;-35.352;149.036;2023-11-18T14:25:30;19.90;72.60
40023;DHT22;25713;-35.352;149.036;2023-11-18T14:28:00;19.90;72.80
40023;DHT22;25713;-35.352;149.036;2023-11-18T14:30:29;19.90;72.80
40023;DHT22;25713;-35.352;149.036;2023-11-18T14:32:59;19.90;72.80
40023;DHT22;25713;-35.352;149.036;2023-11-18T14:35:30;19.90;72.80
40023;DHT22;25713;-35.352;149.036;2023-11-18T14:38:00;19.90;72.80
40023;DHT22;25713;-35.352;149.036;2023-11-18T14:40:30;19.90;72.80
40023;DHT22;25713;-35.352;149.036;2023-11-18T14:42:59;19.90;72.90
40023;DHT22;25713;-35.352;149.036;2023-11-18T15:48:10;19.40;74.70
40023;DHT22;25713;-35.352;149.036;2023-11-18T15:50:40;19.40;75.40
40023;DHT22;25713;-35.352;149.036;2023-11-18T15:53:10;19.40;75.50
40023;DHT22;25713;-35.352;149.036;2023-11-18T15:55:39;19.40;75.60
40023;DHT22;25713;-35.352;149.036;2023-11-18T15:58:09;19.40;75.40
40023;DHT22;25713;-35.352;149.036;2023-11-18T16:00:38;19.40;75.20
40023;DHT22;25713;-35.352;149.036;2023-11-18T16:03:10;19.40;75.30
40023;DHT22;25713;-35.352;149.036;2023-11-18T16:05:39;19.40;75.10
40023;DHT22;25713;-35.352;149.036;2023-11-18T16:08:09;19.40;75.30
40023;DHT22;25713;-35.352;149.036;2023-11-18T16:10:38;19.40;75.20
40023;DHT22;25713;-35.352;149.036;2023-11-18T16:13:08;19.40;75.20
40023;DHT22;25713;-35.352;149.036;2023-11-18T16:15:38;19.40;75.10
40023;DHT22;25713;-35.352;149.036;2023-11-18T16:18:09;19.40;74.90